Time;durP1;ratioP1;P1;durP2;ratioP2;P2;SDS_P1;SDS_P2;PMS_P1;PMS_P2;Temp;Humidity;BMP_temperature;BMP_pressure;BME280_temperature;BME280_humidity;BME280_pressure;Samples;Min_cycle;Max_cycle;Signal;HPM_P1;HPM_P2
2021/12/07 00:01:16;;;;;;;9.57;4.63;;;;;;;;;;5119321;27;20059;-68
2021/12/07 00:03:43;;;;;;;13.27;6.70;;;;;;;;;;5121683;27;20059;-68
2021/12/07 00:06:09;;;;;;;12.80;6.20;;;;;;;;;;5126471;27;20150;-68
2021/12/07 00:08:36;;;;;;;14.52;7.10;;;;;;;;;;5124137;27;20139;-68
2021/12/07 00:11:03;;;;;;;15.05;6.93;;;;;;;;;;5115952;27;20101;-68
2021/12/07 00:13:33;;;;;;;18.50;7.85;;;;;;;;;;5116116;27;20530;-68
2021/12/07 00:16:00;;;;;;;15.35;7.55;;;;;;;;;;5116282;27;20055;-69
2021/12/07 00:18:27;;;;;;;18.10;8.45;;;;;;;;;;5118015;27;20055;-67
2021/12/07 00:20:53;;;;;;;15.88;7.65;;;;;;;;;;5108141;28;20060;-67
2021/12/07 00:23:19;;;;;;;17.83;7.47;;;;;;;;;;5108000;27;20058;-67
2021/12/07 00:25:46;;;;;;;19.27;7.85;;;;;;;;;;5121842;27;20520;-69
2021/12/07 00:28:13;;;;;;;21.33;8.20;;;;;;;;;;5116235;27;20040;-68
2021/12/07 00:30:39;;;;;;;26.73;10.55;;;;;;;;;;5109087;28;20060;-68
2021/12/07 00:34:05;;;;;;;29.30;11.13;;;;;;;;;;5119431;27;20138;-67
2021/12/07 00:35:53;;;;;;;23.27;10.30;;;;;;;;;;5109377;27;20053;-68
2021/12/07 00:38:21;;;;;;;24.00;11.32;;;;;;;;;;5120185;27;20466;-67
2021/12/07 00:40:48;;;;;;;25.85;11.27;;;;;;;;;;5129599;27;20079;-68
2021/12/07 00:43:15;;;;;;;33.20;13.07;;;;;;;;;;5124116;27;20044;-67
2021/12/07 00:45:45;;;;;;;28.05;12.73;;;;;;;;;;5127717;27;20138;-67
2021/12/07 00:48:12;;;;;;;23.52;11.77;;;;;;;;;;5128123;27;20540;-68
2021/12/07 00:50:40;;;;;;;34.83;13.95;;;;;;;;;;5129063;27;20054;-67
2021/12/07 00:53:07;;;;;;;32.20;13.85;;;;;;;;;;5118372;27;20159;-67
2021/12/07 00:55:38;;;;;;;33.67;14.50;;;;;;;;;;5111791;27;20059;-68
2021/12/07 00:58:16;;;;;;;33.58;13.07;;;;;;;;;;5124372;27;20142;-67
2021/12/07 01:00:42;;;;;;;37.17;13.73;;;;;;;;;;5108020;27;20659;-67
2021/12/07 01:03:09;;;;;;;40.17;15.65;;;;;;;;;;5126333;27;20511;-67
2021/12/07 01:05:36;;;;;;;37.90;15.35;;;;;;;;;;5127655;27;20142;-67
2021/12/07 01:27:05;;;;;;;52.08;16.75;;;;;;;;;;5121232;27;20051;-67
2021/12/07 01:29:31;;;;;;;47.15;17.63;;;;;;;;;;5116730;27;20060;-67
2021/12/07 01:50:43;;;;;;;39.58;16.13;;;;;;;;;;5110811;27;20151;-67
2021/12/07 02:01:08;;;;;;;41.47;17.27;;;;;;;;;;5110892;27;20151;-67
2021/12/07 02:03:35;;;;;;;52.17;18.50;;;;;;;;;;5112145;27;20508;-68
2021/12/07 02:06:02;;;;;;;44.55;16.80;;;;;;;;;;5119810;27;20166;-67
2021/12/07 02:08:28;;;;;;;50.78;18.40;;;;;;;;;;5131821;27;20584;-68
2021/12/07 02:10:59;;;;;;;44.10;17.67;;;;;;;;;;5124887;27;20056;-67
2021/12/07 02:15:58;;;;;;;46.78;17.65;;;;;;;;;;5117081;27;20052;-68
2021/12/07 02:18:25;;;;;;;47.53;17.67;;;;;;;;;;5109659;27;20060;-67
2021/12/07 02:20:51;;;;;;;49.97;18.65;;;;;;;;;;5109577;27;20531;-67
2021/12/07 02:23:18;;;;;;;49.72;18.42;;;;;;;;;;5130923;27;20055;-67
2021/12/07 02:25:46;;;;;;;54.95;19.20;;;;;;;;;;5126783;27;20135;-67
2021/12/07 02:28:16;;;;;;;56.38;18.40;;;;;;;;;;5116604;27;20099;-68
2021/12/07 02:30:43;;;;;;;52.67;18.38;;;;;;;;;;5098778;27;20052;-68
2021/12/07 02:33:10;;;;;;;53.22;18.30;;;;;;;;;;5111073;27;20063;-67
2021/12/07 02:35:37;;;;;;;49.70;17.80;;;;;;;;;;5129193;27;20055;-68
2021/12/07 02:38:04;;;;;;;48.15;16.73;;;;;;;;;;5110264;28;20418;-67
2021/12/07 02:40:30;;;;;;;43.80;16.92;;;;;;;;;;5110153;27;20535;-68
2021/12/07 02:42:56;;;;;;;52.78;17.73;;;;;;;;;;5124631;27;20151;-67
2021/12/07 02:45:23;;;;;;;57.17;17.67;;;;;;;;;;5129974;27;20880;-68
2021/12/07 02:47:49;;;;;;;49.20;16.70;;;;;;;;;;5130185;27;20938;-68
2021/12/07 02:50:16;;;;;;;49.53;16.52;;;;;;;;;;5130766;27;20536;-67
2021/12/07 02:52:44;;;;;;;49.08;17.33;;;;;;;;;;5129608;27;20146;-68
2021/12/07 02:55:11;;;;;;;47.05;16.60;;;;;;;;;;5115787;27;20062;-68
2021/12/07 02:57:38;;;;;;;47.67;15.68;;;;;;;;;;5112870;27;20063;-68
2021/12/07 03:00:11;;;;;;;38.78;13.05;;;;;;;;;;5110312;28;20056;-68
2021/12/07 03:02:55;;;;;;;48.97;13.98;;;;;;;;;;5113978;27;20135;-68
2021/12/07 03:05:40;;;;;;;48.35;12.80;;;;;;;;;;5123437;27;20051;-68
2021/12/07 03:08:39;;;;;;;37.90;11.65;;;;;;;;;;5119824;27;20083;-68
2021/12/07 03:27:30;;;;;;;27.88;6.00;;;;;;;;;;5130505;27;20055;-69
2021/12/07 03:29:56;;;;;;;25.00;5.20;;;;;;;;;;5130216;27;20924;-68
2021/12/07 03:32:22;;;;;;;22.45;4.85;;;;;;;;;;5111995;27;20151;-68
2021/12/07 03:34:49;;;;;;;21.77;5.00;;;;;;;;;;5108830;27;20523;-67
2021/12/07 03:37:15;;;;;;;18.13;4.38;;;;;;;;;;5090835;28;20076;-68
2021/12/07 03:39:41;;;;;;;17.55;3.40;;;;;;;;;;5108931;28;20137;-67
2021/12/07 03:42:08;;;;;;;25.33;4.40;;;;;;;;;;5114841;27;20498;-68
2021/12/07 03:44:34;;;;;;;20.75;3.92;;;;;;;;;;5127774;27;20100;-67
2021/12/07 03:47:00;;;;;;;22.17;3.28;;;;;;;;;;5108834;28;20086;-68
2021/12/07 03:49:27;;;;;;;17.77;3.75;;;;;;;;;;5109300;28;20148;-68
2021/12/07 03:51:53;;;;;;;15.00;3.10;;;;;;;;;;5109438;27;20060;-68
2021/12/07 03:54:20;;;;;;;15.07;3.05;;;;;;;;;;5110064;27;20051;-68
2021/12/07 03:56:46;;;;;;;26.10;4.20;;;;;;;;;;5115820;27;20055;-68
2021/12/07 03:59:13;;;;;;;16.17;3.20;;;;;;;;;;5116251;27;20056;-68
2021/12/07 04:01:39;;;;;;;25.13;3.67;;;;;;;;;;5108565;27;20056;-68
2021/12/07 04:04:06;;;;;;;22.23;2.92;;;;;;;;;;5129535;27;20151;-68
2021/12/07 04:06:32;;;;;;;18.27;2.97;;;;;;;;;;5116881;27;20167;-68
2021/12/07 04:08:59;;;;;;;7.70;2.20;;;;;;;;;;5109622;28;20147;-68
2021/12/07 04:11:26;;;;;;;13.85;2.50;;;;;;;;;;5125949;27;20048;-69
2021/12/07 04:13:52;;;;;;;12.27;1.85;;;;;;;;;;5125029;27;20083;-68
2021/12/07 04:16:19;;;;;;;14.75;1.80;;;;;;;;;;5118063;27;20058;-68
2021/12/07 04:18:45;;;;;;;12.68;2.30;;;;;;;;;;5119963;27;20114;-68
2021/12/07 04:21:12;;;;;;;9.93;2.33;;;;;;;;;;5129345;27;20078;-69
2021/12/07 04:23:39;;;;;;;15.07;2.33;;;;;;;;;;5125391;27;20055;-68
2021/12/07 04:26:06;;;;;;;14.85;2.28;;;;;;;;;;5123030;27;20051;-68
2021/12/07 04:28:33;;;;;;;10.77;2.93;;;;;;;;;;5127194;27;21117;-68
2021/12/07 04:31:00;;;;;;;8.82;2.25;;;;;;;;;;5121612;27;20058;-68
2021/12/07 04:33:29;;;;;;;19.63;2.47;;;;;;;;;;5126798;27;20512;-68
2021/12/07 04:35:56;;;;;;;11.50;2.13;;;;;;;;;;5117545;27;20059;-67
2021/12/07 04:38:22;;;;;;;18.17;2.70;;;;;;;;;;5108243;28;20056;-68
2021/12/07 04:40:49;;;;;;;11.63;2.28;;;;;;;;;;5108092;28;20135;-68
2021/12/07 04:43:15;;;;;;;10.48;1.98;;;;;;;;;;5107875;28;20052;-68
2021/12/07 04:59:04;;;;;;;14.45;2.58;;;;;;;;;;5107951;28;20967;-68
2021/12/07 05:01:32;;;;;;;23.77;3.50;;;;;;;;;;5117354;27;20051;-68
2021/12/07 05:04:04;;;;;;;21.05;3.63;;;;;;;;;;5126542;27;20051;-68
2021/12/07 05:06:33;;;;;;;16.67;3.13;;;;;;;;;;5127206;27;20061;-68
2021/12/07 05:09:08;;;;;;;;;;;;;;;;;;5120593;27;20156;-68
2021/12/07 05:11:51;;;;;;;22.50;3.15;;;;;;;;;;5127711;27;42973;-68
2021/12/07 05:14:19;;;;;;;25.05;3.15;;;;;;;;;;5128236;27;20062;-68
2021/12/07 05:38:21;;;;;;;17.15;3.30;;;;;;;;;;5112318;27;20048;-68
2021/12/07 05:40:47;;;;;;;29.38;3.83;;;;;;;;;;5108121;27;20135;-68
2021/12/07 05:43:14;;;;;;;28.60;4.93;;;;;;;;;;5122523;27;20542;-70
2021/12/07 05:45:40;;;;;;;22.20;3.63;;;;;;;;;;5128083;27;20043;-69
2021/12/07 05:48:07;;;;;;;17.92;3.78;;;;;;;;;;5128055;27;20082;-69
2021/12/07 05:50:36;;;;;;;17.60;4.00;;;;;;;;;;5127216;27;20924;-69
2021/12/07 05:53:03;;;;;;;24.50;4.60;;;;;;;;;;5117978;27;20140;-68
2021/12/07 05:55:29;;;;;;;35.33;4.25;;;;;;;;;;5115314;27;20104;-68
2021/12/07 05:57:56;;;;;;;24.88;3.45;;;;;;;;;;5130049;27;20143;-69
2021/12/07 06:00:26;;;;;;;28.70;4.22;;;;;;;;;;5128744;27;20048;-68
2021/12/07 06:02:53;;;;;;;22.85;3.63;;;;;;;;;;5121121;27;20047;-69
2021/12/07 06:05:21;;;;;;;27.48;4.18;;;;;;;;;;5129483;27;20048;-68
2021/12/07 06:07:47;;;;;;;32.63;4.57;;;;;;;;;;5111608;27;20062;-68
2021/12/07 06:10:13;;;;;;;27.65;4.32;;;;;;;;;;5111140;27;20189;-69
2021/12/07 06:12:40;;;;;;;23.90;3.70;;;;;;;;;;5127454;27;20047;-69
2021/12/07 06:15:06;;;;;;;17.67;3.58;;;;;;;;;;5130879;27;20058;-69
2021/12/07 06:17:33;;;;;;;23.02;3.78;;;;;;;;;;5130724;27;20522;-69
2021/12/07 06:20:00;;;;;;;19.40;4.47;;;;;;;;;;5132079;27;20047;-69
2021/12/07 06:22:26;;;;;;;32.83;4.10;;;;;;;;;;5130628;27;20059;-68
2021/12/07 06:24:53;;;;;;;24.15;3.38;;;;;;;;;;5131413;27;20052;-68
2021/12/07 06:27:19;;;;;;;22.25;3.65;;;;;;;;;;5115711;27;20056;-68
2021/12/07 06:29:45;;;;;;;24.15;3.92;;;;;;;;;;5110437;28;20225;-69
2021/12/07 06:32:12;;;;;;;24.17;4.10;;;;;;;;;;5119219;27;20085;-68
2021/12/07 06:34:38;;;;;;;20.42;4.32;;;;;;;;;;5110598;28;20052;-68
2021/12/07 06:37:05;;;;;;;21.15;3.83;;;;;;;;;;5123967;27;20047;-68
2021/12/07 06:39:31;;;;;;;22.58;4.05;;;;;;;;;;5129584;27;20069;-68
2021/12/07 06:41:57;;;;;;;26.95;5.22;;;;;;;;;;5130621;27;20058;-68
2021/12/07 06:44:24;;;;;;;32.63;6.05;;;;;;;;;;5131313;27;20056;-68
2021/12/07 06:46:50;;;;;;;22.80;4.57;;;;;;;;;;5124553;27;20062;-68
2021/12/07 06:49:18;;;;;;;27.33;4.55;;;;;;;;;;5126916;27;20101;-68
2021/12/07 06:51:44;;;;;;;16.20;4.35;;;;;;;;;;5119076;27;20151;-68
2021/12/07 06:54:11;;;;;;;30.00;5.50;;;;;;;;;;5130735;27;20105;-69
2021/12/07 06:56:37;;;;;;;24.58;4.53;;;;;;;;;;5129233;27;20052;-68
2021/12/07 06:59:04;;;;;;;24.88;5.00;;;;;;;;;;5129530;27;20051;-68
2021/12/07 07:01:30;;;;;;;23.40;4.97;;;;;;;;;;5128822;27;20066;-69
2021/12/07 07:03:59;;;;;;;39.10;5.53;;;;;;;;;;5111871;27;20166;-69
2021/12/07 07:06:26;;;;;;;33.70;5.82;;;;;;;;;;5129688;27;20296;-68
2021/12/07 07:08:52;;;;;;;23.90;5.10;;;;;;;;;;5124943;27;20048;-68
2021/12/07 07:11:19;;;;;;;26.27;5.45;;;;;;;;;;5117814;27;20089;-68
2021/12/07 07:13:47;;;;;;;34.38;5.65;;;;;;;;;;5129709;27;20055;-68
2021/12/07 07:16:14;;;;;;;26.90;5.27;;;;;;;;;;5125184;27;20473;-68
2021/12/07 07:18:41;;;;;;;24.80;5.18;;;;;;;;;;5109786;28;20636;-68
2021/12/07 07:21:08;;;;;;;21.33;6.03;;;;;;;;;;5109281;28;20129;-68
2021/12/07 07:23:34;;;;;;;38.83;6.00;;;;;;;;;;5115476;27;20077;-68
2021/12/07 07:26:01;;;;;;;25.27;5.82;;;;;;;;;;5124418;27;20059;-68
2021/12/07 07:28:28;;;;;;;28.90;6.07;;;;;;;;;;5113542;27;20081;-68
2021/12/07 07:30:56;;;;;;;29.70;6.57;;;;;;;;;;5112150;27;20052;-68
2021/12/07 07:33:22;;;;;;;34.50;7.95;;;;;;;;;;5129418;27;20134;-68
2021/12/07 07:35:49;;;;;;;41.83;13.93;;;;;;;;;;5120323;27;20577;-68
2021/12/07 07:38:15;;;;;;;48.67;13.25;;;;;;;;;;5090170;28;20048;-69
2021/12/07 07:40:44;;;;;;;27.35;7.35;;;;;;;;;;5122859;27;20078;-68
2021/12/07 07:43:13;;;;;;;32.47;6.43;;;;;;;;;;5126292;27;20108;-68
2021/12/07 07:45:39;;;;;;;24.20;6.00;;;;;;;;;;5118483;27;20147;-68
2021/12/07 07:48:06;;;;;;;28.15;6.25;;;;;;;;;;5109252;28;20188;-68
2021/12/07 07:50:32;;;;;;;29.33;5.88;;;;;;;;;;5108194;27;20052;-69
2021/12/07 07:52:58;;;;;;;25.77;5.07;;;;;;;;;;5118478;27;20064;-68
2021/12/07 07:55:25;;;;;;;19.70;5.45;;;;;;;;;;5108453;27;20616;-66
2021/12/07 07:57:51;;;;;;;22.75;6.30;;;;;;;;;;5121390;27;20058;-67
2021/12/07 08:00:18;;;;;;;26.55;5.28;;;;;;;;;;5129020;27;20066;-67
2021/12/07 08:02:45;;;;;;;28.60;5.90;;;;;;;;;;5121517;27;20048;-67
2021/12/07 08:05:12;;;;;;;26.10;6.25;;;;;;;;;;5108614;27;20055;-67
2021/12/07 08:07:39;;;;;;;23.95;5.70;;;;;;;;;;5108582;27;20517;-66
2021/12/07 08:10:06;;;;;;;26.65;6.25;;;;;;;;;;5109408;28;20052;-67
2021/12/07 08:12:33;;;;;;;19.88;5.82;;;;;;;;;;5111837;27;20143;-67
2021/12/07 08:14:59;;;;;;;27.92;5.38;;;;;;;;;;5108946;28;20062;-67
2021/12/07 08:17:25;;;;;;;20.83;5.50;;;;;;;;;;5107048;28;20040;-66
2021/12/07 08:19:52;;;;;;;23.60;5.82;;;;;;;;;;5107854;28;20070;-67
2021/12/07 08:22:18;;;;;;;27.10;5.40;;;;;;;;;;5130697;27;20093;-67
2021/12/07 08:24:45;;;;;;;23.98;5.88;;;;;;;;;;5140171;27;20053;-67
2021/12/07 08:27:12;;;;;;;21.23;5.40;;;;;;;;;;5131344;27;20055;-67
2021/12/07 08:29:54;;;;;;;26.90;5.93;;;;;;;;;;5111526;27;20059;-67
2021/12/07 08:32:21;;;;;;;15.88;4.65;;;;;;;;;;5134173;27;20142;-66
2021/12/07 08:34:47;;;;;;;24.75;6.68;;;;;;;;;;5113443;27;20058;-67
2021/12/07 08:37:13;;;;;;;16.95;5.03;;;;;;;;;;5090575;28;20050;-67
2021/12/07 08:39:40;;;;;;;23.35;5.10;;;;;;;;;;5110947;27;20111;-67
2021/12/07 08:42:06;;;;;;;28.75;5.32;;;;;;;;;;5126255;27;20497;-67
2021/12/07 08:44:33;;;;;;;26.13;5.85;;;;;;;;;;5108377;28;20083;-67
2021/12/07 08:46:59;;;;;;;19.08;5.60;;;;;;;;;;5108279;28;20171;-67
2021/12/07 08:49:26;;;;;;;31.75;6.25;;;;;;;;;;5108385;28;20516;-67
2021/12/07 08:51:52;;;;;;;22.25;5.47;;;;;;;;;;5108314;28;20048;-67
2021/12/07 08:59:40;;;;;;;19.58;5.68;;;;;;;;;;5119858;27;20517;-68
2021/12/07 09:02:06;;;;;;;27.02;6.50;;;;;;;;;;5128510;27;20142;-67
2021/12/07 09:04:33;;;;;;;26.27;6.10;;;;;;;;;;5128766;27;20055;-68
2021/12/07 09:07:00;;;;;;;23.73;6.32;;;;;;;;;;5128239;27;20052;-68
2021/12/07 09:09:28;;;;;;;23.50;5.38;;;;;;;;;;5121819;27;20048;-68
2021/12/07 09:11:55;;;;;;;15.90;4.68;;;;;;;;;;5117964;27;20079;-69
2021/12/07 09:14:22;;;;;;;14.45;4.30;;;;;;;;;;5125642;27;20059;-69
2021/12/07 09:16:49;;;;;;;24.73;6.35;;;;;;;;;;5107551;28;20058;-68
2021/12/07 09:19:16;;;;;;;21.58;5.43;;;;;;;;;;5120500;27;20841;-68
2021/12/07 09:21:42;;;;;;;25.02;6.03;;;;;;;;;;5121156;27;20117;-68
2021/12/07 09:24:09;;;;;;;29.38;5.43;;;;;;;;;;5124993;27;20170;-69
2021/12/07 09:26:36;;;;;;;22.05;5.93;;;;;;;;;;5128213;27;20939;-68
2021/12/07 09:29:03;;;;;;;13.95;5.07;;;;;;;;;;5114503;27;20546;-68
2021/12/07 09:31:29;;;;;;;26.08;6.13;;;;;;;;;;5114227;27;20142;-68
2021/12/07 09:33:57;;;;;;;25.65;5.85;;;;;;;;;;5113981;27;20074;-68
2021/12/07 09:36:25;;;;;;;19.85;5.30;;;;;;;;;;5128927;27;20052;-68
2021/12/07 09:38:54;;;;;;;26.77;6.10;;;;;;;;;;5132084;27;20062;-68
2021/12/07 09:41:20;;;;;;;22.50;5.05;;;;;;;;;;5131063;27;20096;-69
2021/12/07 09:43:47;;;;;;;23.25;5.50;;;;;;;;;;5131532;27;20047;-70
2021/12/07 09:46:14;;;;;;;25.90;5.63;;;;;;;;;;5113395;27;20553;-69
2021/12/07 09:48:41;;;;;;;26.92;7.10;;;;;;;;;;5110738;28;20178;-69
2021/12/07 09:51:09;;;;;;;27.55;6.15;;;;;;;;;;5110880;28;20585;-68
2021/12/07 09:53:35;;;;;;;22.75;4.90;;;;;;;;;;5110856;28;20550;-68
2021/12/07 09:56:03;;;;;;;32.38;6.80;;;;;;;;;;5110605;28;20141;-69
2021/12/07 09:58:30;;;;;;;29.77;6.53;;;;;;;;;;5111082;28;20044;-69
2021/12/07 10:00:57;;;;;;;21.13;6.53;;;;;;;;;;5111706;28;20825;-68
2021/12/07 10:03:24;;;;;;;25.65;6.70;;;;;;;;;;5112228;27;20102;-68
2021/12/07 10:05:51;;;;;;;27.63;7.10;;;;;;;;;;5110652;28;20515;-68
2021/12/07 10:08:17;;;;;;;25.88;6.85;;;;;;;;;;5110668;28;20128;-68
2021/12/07 10:10:45;;;;;;;28.27;6.72;;;;;;;;;;5110615;28;20509;-68
2021/12/07 10:13:14;;;;;;;28.33;7.32;;;;;;;;;;5110907;28;20135;-68
2021/12/07 10:15:41;;;;;;;33.90;8.35;;;;;;;;;;5110904;28;20074;-68
2021/12/07 10:18:12;;;;;;;27.23;7.10;;;;;;;;;;5111512;27;20055;-68
2021/12/07 10:21:00;;;;;;;29.98;7.68;;;;;;;;;;5109796;28;20061;-68
2021/12/07 10:23:50;;;;;;;29.13;7.50;;;;;;;;;;5110178;28;21481;-69
2021/12/07 10:26:23;;;;;;;26.95;7.18;;;;;;;;;;5099466;28;20604;-69
2021/12/07 10:28:52;;;;;;;29.60;8.30;;;;;;;;;;5110982;28;20062;-68
2021/12/07 10:31:18;;;;;;;28.60;7.18;;;;;;;;;;5110408;28;20058;-68
2021/12/07 10:33:47;;;;;;;27.40;7.07;;;;;;;;;;5110575;28;20551;-68
2021/12/07 10:36:21;;;;;;;31.92;8.75;;;;;;;;;;5120029;27;20511;-69
2021/12/07 10:38:50;;;;;;;29.20;7.88;;;;;;;;;;5130717;27;20135;-69
2021/12/07 10:41:21;;;;;;;36.15;8.30;;;;;;;;;;5130198;27;20082;-68
2021/12/07 10:44:13;;;;;;;37.92;8.60;;;;;;;;;;5131103;27;20056;-69
2021/12/07 10:46:39;;;;;;;31.35;8.10;;;;;;;;;;5111897;27;20052;-69
2021/12/07 10:49:14;;;;;;;31.02;8.20;;;;;;;;;;5131148;27;20043;-69
2021/12/07 10:51:42;;;;;;;27.15;8.57;;;;;;;;;;5130666;27;20047;-68
2021/12/07 10:54:08;;;;;;;36.75;8.45;;;;;;;;;;5129843;27;20051;-69
2021/12/07 10:56:35;;;;;;;32.42;8.18;;;;;;;;;;5130698;27;20058;-68
2021/12/07 10:59:06;;;;;;;27.80;7.95;;;;;;;;;;5131187;27;20440;-68
2021/12/07 11:01:36;;;;;;;36.65;8.82;;;;;;;;;;5130376;27;20113;-68
2021/12/07 11:04:22;;;;;;;33.25;8.10;;;;;;;;;;5130556;27;20055;-68
2021/12/07 11:07:07;;;;;;;34.03;8.23;;;;;;;;;;5110460;27;21791;-68
2021/12/07 11:09:42;;;;;;;26.80;7.30;;;;;;;;;;5113925;27;20528;-68
2021/12/07 11:12:10;;;;;;;35.13;9.68;;;;;;;;;;5129841;27;20948;-68
2021/12/07 11:14:49;;;;;;;24.00;7.85;;;;;;;;;;5129940;27;20511;-68
2021/12/07 11:17:33;;;;;;;28.98;6.70;;;;;;;;;;5130395;27;20610;-68
2021/12/07 11:20:00;;;;;;;27.38;7.30;;;;;;;;;;5130077;27;20052;-68
2021/12/07 11:22:31;;;;;;;28.33;7.22;;;;;;;;;;5111610;27;20123;-68
2021/12/07 11:24:58;;;;;;;30.88;7.68;;;;;;;;;;5130443;27;20104;-68
2021/12/07 11:30:12;;;;;;;26.40;7.40;;;;;;;;;;5130895;27;20147;-68
2021/12/07 11:32:51;;;;;;;22.08;6.45;;;;;;;;;;5130210;27;20075;-69
2021/12/07 11:35:19;;;;;;;30.05;8.18;;;;;;;;;;5127246;27;20147;-69
2021/12/07 11:37:46;;;;;;;31.80;7.90;;;;;;;;;;5109758;28;20101;-68
2021/12/07 11:40:17;;;;;;;32.22;8.70;;;;;;;;;;5109006;28;20462;-69
2021/12/07 11:42:43;;;;;;;24.52;6.97;;;;;;;;;;5109337;28;20083;-68
2021/12/07 11:45:13;;;;;;;36.65;7.88;;;;;;;;;;5110282;27;20086;-69
2021/12/07 11:47:44;;;;;;;30.33;7.22;;;;;;;;;;5109371;28;20843;-69
2021/12/07 11:50:19;;;;;;;31.13;7.50;;;;;;;;;;5109622;27;20052;-68
2021/12/07 11:52:47;;;;;;;24.42;6.28;;;;;;;;;;5111995;27;20528;-69
2021/12/07 11:55:14;;;;;;;24.35;6.10;;;;;;;;;;5122442;27;20056;-70
2021/12/07 11:57:40;;;;;;;26.52;6.78;;;;;;;;;;5127927;27;20108;-69
2021/12/07 12:00:09;;;;;;;18.88;5.97;;;;;;;;;;5135027;27;20510;-69
2021/12/07 12:02:35;;;;;;;;;;;;;;;;;;5125231;27;20146;-69
2021/12/07 12:05:03;;;;;;;22.77;5.85;;;;;;;;;;5124025;27;46111;-70
2021/12/07 12:07:30;;;;;;;28.30;7.20;;;;;;;;;;5123136;27;20146;-68
2021/12/07 12:09:57;;;;;;;20.60;6.18;;;;;;;;;;5113607;27;20059;-68
2021/12/07 12:12:55;;;;;;;27.25;5.82;;;;;;;;;;5116576;27;20055;-68
2021/12/07 13:42:45;;;;;;;23.88;4.75;;;;;;;;;;5089948;28;20390;-68
2021/12/07 13:45:12;;;;;;;20.42;4.53;;;;;;;;;;5068625;28;20045;-68
2021/12/07 13:47:44;;;;;;;22.73;6.07;;;;;;;;;;5104971;28;20086;-69
2021/12/07 13:50:12;;;;;;;16.73;4.30;;;;;;;;;;5093944;28;20059;-69
2021/12/07 13:52:40;;;;;;;18.15;4.78;;;;;;;;;;5084310;28;20210;-69
2021/12/07 13:55:11;;;;;;;13.57;4.07;;;;;;;;;;5099545;28;20494;-69
2021/12/07 13:57:39;;;;;;;19.80;4.40;;;;;;;;;;5104620;28;20055;-69
2021/12/07 14:00:16;;;;;;;17.17;4.85;;;;;;;;;;5087764;28;20527;-69
2021/12/07 14:02:49;;;;;;;23.40;4.53;;;;;;;;;;5075174;28;20045;-69
2021/12/07 14:05:17;;;;;;;20.63;4.75;;;;;;;;;;5089062;28;20049;-69
2021/12/07 14:07:44;;;;;;;22.10;5.03;;;;;;;;;;5082074;28;20482;-69
2021/12/07 14:10:13;;;;;;;18.30;4.88;;;;;;;;;;5089620;28;20873;-69
2021/12/07 14:12:39;;;;;;;;;;;;;;;;;;5090420;28;20646;-69
2021/12/07 14:15:11;;;;;;;16.52;4.10;;;;;;;;;;5066910;28;45163;-69
2021/12/07 14:17:38;;;;;;;20.98;5.35;;;;;;;;;;5082552;28;20110;-69
2021/12/07 14:20:04;;;;;;;20.80;5.03;;;;;;;;;;5087246;28;20063;-69
2021/12/07 14:22:31;;;;;;;16.20;5.13;;;;;;;;;;5073827;28;20521;-68
2021/12/07 14:24:57;;;;;;;18.40;4.55;;;;;;;;;;5079650;28;20056;-68
2021/12/07 14:27:23;;;;;;;22.20;4.07;;;;;;;;;;5084064;28;20545;-70
2021/12/07 14:29:50;;;;;;;24.40;5.28;;;;;;;;;;5084056;28;20495;-68
2021/12/07 14:32:16;;;;;;;17.55;4.97;;;;;;;;;;5084590;28;20057;-69
2021/12/07 14:34:45;;;;;;;23.05;5.68;;;;;;;;;;5070102;28;20057;-71
2021/12/07 14:37:12;;;;;;;16.08;4.68;;;;;;;;;;5065301;28;20056;-70
2021/12/07 14:39:40;;;;;;;18.30;4.55;;;;;;;;;;5074388;28;20507;-68
2021/12/07 14:42:08;;;;;;;23.63;4.30;;;;;;;;;;5082860;28;20082;-68
2021/12/07 14:44:36;;;;;;;20.63;5.38;;;;;;;;;;5069479;28;20144;-68
2021/12/07 14:47:07;;;;;;;17.20;4.45;;;;;;;;;;5076116;28;20418;-68
2021/12/07 14:49:35;;;;;;;16.20;4.57;;;;;;;;;;5086479;28;20118;-70
2021/12/07 14:52:07;;;;;;;17.35;3.95;;;;;;;;;;5071447;28;20560;-71
2021/12/07 14:54:34;;;;;;;19.08;5.07;;;;;;;;;;5062969;28;20055;-70
2021/12/07 14:57:00;;;;;;;19.13;4.28;;;;;;;;;;5056054;28;20958;-70
2021/12/07 14:59:26;;;;;;;14.27;4.00;;;;;;;;;;5067334;28;20069;-71
2021/12/07 15:01:55;;;;;;;14.65;3.65;;;;;;;;;;5058085;28;20144;-68
2021/12/07 15:04:24;;;;;;;19.55;4.55;;;;;;;;;;5054267;28;20104;-69
2021/12/07 15:07:00;;;;;;;17.33;4.10;;;;;;;;;;5061364;28;20823;-68
2021/12/07 15:09:27;;;;;;;20.25;4.13;;;;;;;;;;5055294;28;20130;-68
2021/12/07 15:11:54;;;;;;;19.92;4.50;;;;;;;;;;5071945;28;20587;-68
2021/12/07 15:14:23;;;;;;;14.38;3.97;;;;;;;;;;5078604;28;20508;-68
2021/12/07 15:16:52;;;;;;;20.92;4.45;;;;;;;;;;5061722;28;20053;-68
2021/12/07 15:19:19;;;;;;;18.13;3.83;;;;;;;;;;5053586;28;20069;-68
2021/12/07 15:21:46;;;;;;;17.77;4.40;;;;;;;;;;5069455;28;20107;-68
2021/12/07 15:24:16;;;;;;;13.25;3.90;;;;;;;;;;5066914;28;20053;-68
2021/12/07 15:26:42;;;;;;;13.18;3.28;;;;;;;;;;5050864;28;20139;-68
2021/12/07 15:29:10;;;;;;;16.77;3.35;;;;;;;;;;5050942;28;20136;-68
2021/12/07 15:31:38;;;;;;;16.50;3.60;;;;;;;;;;5069634;28;20061;-68
2021/12/07 15:34:06;;;;;;;17.03;3.80;;;;;;;;;;5050516;28;20053;-68
2021/12/07 15:36:36;;;;;;;14.55;3.33;;;;;;;;;;5051497;28;20145;-68
2021/12/07 15:39:11;;;;;;;16.63;4.18;;;;;;;;;;5066422;28;20586;-68
2021/12/07 15:41:40;;;;;;;19.92;4.18;;;;;;;;;;5063140;28;20575;-68
2021/12/07 15:44:07;;;;;;;16.33;4.32;;;;;;;;;;5059486;28;20048;-69
2021/12/07 15:46:34;;;;;;;12.48;3.33;;;;;;;;;;5054241;28;20116;-68
2021/12/07 15:49:00;;;;;;;9.85;2.80;;;;;;;;;;5049319;28;20073;-68
2021/12/07 15:51:27;;;;;;;17.40;4.18;;;;;;;;;;5048744;28;20115;-68
2021/12/07 15:53:56;;;;;;;17.70;4.15;;;;;;;;;;5050857;28;20128;-68
2021/12/07 15:56:23;;;;;;;19.88;3.95;;;;;;;;;;5067931;28;20053;-68
2021/12/07 15:58:51;;;;;;;15.93;3.85;;;;;;;;;;5062554;28;20062;-68
2021/12/07 16:01:18;;;;;;;15.15;3.58;;;;;;;;;;5058390;28;20049;-68
2021/12/07 16:03:46;;;;;;;15.77;3.63;;;;;;;;;;5068884;28;20052;-68
2021/12/07 16:06:20;;;;;;;15.40;4.18;;;;;;;;;;5066058;28;20497;-69
2021/12/07 16:08:47;;;;;;;14.55;3.33;;;;;;;;;;5068113;28;20056;-68
2021/12/07 16:11:20;;;;;;;23.48;4.10;;;;;;;;;;5057440;28;20163;-68
2021/12/07 16:13:51;;;;;;;14.43;3.15;;;;;;;;;;5047915;28;20053;-68
2021/12/07 16:16:23;;;;;;;15.55;4.00;;;;;;;;;;5049194;28;20057;-68
2021/12/07 16:18:49;;;;;;;17.23;3.97;;;;;;;;;;5048324;28;20099;-68
2021/12/07 16:21:17;;;;;;;20.92;3.72;;;;;;;;;;5068425;28;20057;-68
2021/12/07 16:23:45;;;;;;;18.13;3.78;;;;;;;;;;5075852;28;20135;-68
2021/12/07 16:26:12;;;;;;;11.45;3.10;;;;;;;;;;5085150;28;20055;-69
2021/12/07 16:28:40;;;;;;;11.48;3.45;;;;;;;;;;5053971;28;20053;-68
2021/12/07 16:31:07;;;;;;;10.73;2.95;;;;;;;;;;5063035;28;20431;-69
2021/12/07 16:33:34;;;;;;;18.35;3.55;;;;;;;;;;5058394;28;20069;-68
2021/12/07 16:36:00;;;;;;;14.15;3.80;;;;;;;;;;5062176;28;20161;-68
2021/12/07 16:38:28;;;;;;;16.02;3.95;;;;;;;;;;5060284;28;20981;-69
2021/12/07 16:40:54;;;;;;;18.98;3.72;;;;;;;;;;5057394;28;20139;-69
2021/12/07 16:43:22;;;;;;;11.68;3.58;;;;;;;;;;5055711;28;20053;-69
2021/12/07 16:45:48;;;;;;;11.00;3.30;;;;;;;;;;5055084;28;20054;-69
2021/12/07 16:48:14;;;;;;;16.15;3.25;;;;;;;;;;5050988;28;20053;-69
2021/12/07 16:50:41;;;;;;;10.95;2.78;;;;;;;;;;5048071;28;20046;-69
2021/12/07 16:53:08;;;;;;;14.75;3.33;;;;;;;;;;5057836;28;20061;-68
2021/12/07 16:55:34;;;;;;;12.32;3.67;;;;;;;;;;5060109;28;20054;-70
2021/12/07 16:58:02;;;;;;;16.35;3.38;;;;;;;;;;5057137;28;21065;-68
2021/12/07 17:00:29;;;;;;;16.92;3.60;;;;;;;;;;5047573;28;20049;-68
2021/12/07 17:02:55;;;;;;;14.85;3.53;;;;;;;;;;5048630;28;20063;-68
2021/12/07 17:05:27;;;;;;;12.75;3.33;;;;;;;;;;5050599;28;20063;-68
2021/12/07 17:07:54;;;;;;;15.57;3.53;;;;;;;;;;5055359;28;20571;-68
2021/12/07 17:10:22;;;;;;;16.70;3.88;;;;;;;;;;5047827;28;20145;-68
2021/12/07 17:12:49;;;;;;;18.73;3.58;;;;;;;;;;5061438;28;20107;-69
2021/12/07 17:15:16;;;;;;;11.48;2.60;;;;;;;;;;5056987;28;20053;-69
2021/12/07 17:17:43;;;;;;;10.07;3.03;;;;;;;;;;5065171;28;20501;-69
2021/12/07 17:20:10;;;;;;;12.85;3.35;;;;;;;;;;5056276;28;20087;-69
2021/12/07 17:22:37;;;;;;;11.10;3.25;;;;;;;;;;5047462;28;20053;-69
2021/12/07 17:25:05;;;;;;;12.18;3.03;;;;;;;;;;5062971;28;20061;-68
2021/12/07 17:27:31;;;;;;;14.90;3.00;;;;;;;;;;5052969;28;20059;-68
2021/12/07 17:29:59;;;;;;;10.07;3.10;;;;;;;;;;5048385;28;20058;-68
2021/12/07 17:32:26;;;;;;;10.35;3.22;;;;;;;;;;5047808;28;20512;-69
2021/12/07 17:34:53;;;;;;;11.63;3.00;;;;;;;;;;5050339;28;20208;-69
2021/12/07 17:37:19;;;;;;;12.95;2.95;;;;;;;;;;5056377;28;20511;-69
2021/12/07 17:39:48;;;;;;;10.40;2.80;;;;;;;;;;5055824;28;20042;-70
2021/12/07 17:42:18;;;;;;;15.13;3.10;;;;;;;;;;5051317;28;20136;-69
2021/12/07 17:44:45;;;;;;;6.80;2.67;;;;;;;;;;5058939;28;20089;-69
2021/12/07 17:47:11;;;;;;;10.52;2.83;;;;;;;;;;5054285;28;20056;-69
2021/12/07 17:49:38;;;;;;;8.00;2.72;;;;;;;;;;5047954;28;21662;-69